createdAt,value
2019-05-14T00:02:04.424Z,64.50
2019-05-14T00:04:31.562Z,64.60
2019-05-14T00:06:57.918Z,64.10
2019-05-14T00:09:24.144Z,63.00
2019-05-14T00:11:51.236Z,64.10
2019-05-14T00:14:17.621Z,64.10
2019-05-14T00:16:43.855Z,63.90
2019-05-14T00:19:11.194Z,64.50
2019-05-14T00:21:37.588Z,65.00
2019-05-14T00:24:03.825Z,64.60
2019-05-14T00:26:31.854Z,65.40
2019-05-14T00:28:58.213Z,64.60
2019-05-14T00:31:24.463Z,65.10
2019-05-14T00:33:51.264Z,65.10
2019-05-14T00:36:17.758Z,65.10
2019-05-14T00:38:44.022Z,65.80
2019-05-14T00:41:11.143Z,65.60
2019-05-14T00:43:37.557Z,66.00
2019-05-14T00:46:03.787Z,66.40
2019-05-14T00:48:31.787Z,66.90
2019-05-14T00:51:02.248Z,67.10
2019-05-14T00:53:28.308Z,66.50
2019-05-14T00:55:54.600Z,66.50
2019-05-14T00:58:21.781Z,67.20
2019-05-14T01:00:48.227Z,67.50
2019-05-14T01:03:14.468Z,67.80
2019-05-14T01:05:41.408Z,67.90
2019-05-14T01:08:07.801Z,68.20
2019-05-14T01:10:34.032Z,68.40
2019-05-14T01:13:01.259Z,68.90
2019-05-14T01:15:32.044Z,70.00
2019-05-14T01:18:01.921Z,69.90
2019-05-14T01:20:28.135Z,70.30
2019-05-14T01:22:55.491Z,70.80
2019-05-14T01:25:23.551Z,71.00
2019-05-14T01:27:51.830Z,71.60
2019-05-14T01:30:18.214Z,72.00
2019-05-14T01:32:44.435Z,72.80
2019-05-14T01:35:12.102Z,73.10
2019-05-14T01:37:38.754Z,73.20
2019-05-14T01:40:06.709Z,73.40
2019-05-14T01:42:32.932Z,73.40
2019-05-14T01:44:59.519Z,73.70
2019-05-14T01:47:26.366Z,73.80
2019-05-14T01:49:52.630Z,74.10
2019-05-14T01:52:18.861Z,74.50
2019-05-14T01:54:53.592Z,74.50
2019-05-14T01:57:22.117Z,74.80
2019-05-14T01:59:48.437Z,74.90
2019-05-14T02:02:22.022Z,75.10
2019-05-14T02:04:51.131Z,75.20
2019-05-14T02:07:17.038Z,75.50
2019-05-14T02:09:43.273Z,75.80
2019-05-14T02:12:11.572Z,76.00
2019-05-14T02:14:45.971Z,76.20
2019-05-14T02:17:13.611Z,76.40
2019-05-14T02:19:42.310Z,76.50
2019-05-14T02:22:14.893Z,77.30
2019-05-14T02:24:41.930Z,76.60
2019-05-14T02:27:08.662Z,76.50
2019-05-14T02:29:44.595Z,76.60
2019-05-14T02:32:11.330Z,76.50
2019-05-14T02:34:39.800Z,76.40
2019-05-14T02:37:08.975Z,76.30
2019-05-14T02:39:33.920Z,76.40
2019-05-14T02:42:00.538Z,76.30
2019-05-14T02:44:29.924Z,76.30
2019-05-14T02:46:59.256Z,76.30
2019-05-14T02:49:24.769Z,76.50
2019-05-14T02:51:50.982Z,76.80
2019-05-14T02:54:20.111Z,77.40
2019-05-14T02:56:45.369Z,77.40
2019-05-14T02:59:11.633Z,77.50
2019-05-14T03:01:50.559Z,77.50
2019-05-14T03:04:19.820Z,77.60
2019-05-14T03:06:46.201Z,77.80
2019-05-14T03:09:12.521Z,77.90
2019-05-14T03:11:40.350Z,78.10
2019-05-14T03:14:09.066Z,77.90
2019-05-14T03:16:36.161Z,78.00
2019-05-14T03:19:05.245Z,78.00
2019-05-14T03:21:31.500Z,78.10
2019-05-14T03:24:00.913Z,78.30
2019-05-14T03:26:29.334Z,78.30
2019-05-14T03:28:59.782Z,78.30
2019-05-14T03:31:24.577Z,78.50
2019-05-14T03:33:52.953Z,78.30
2019-05-14T03:36:25.706Z,78.30
2019-05-14T03:38:54.647Z,77.00
2019-05-14T03:41:21.008Z,76.20
2019-05-14T03:43:49.337Z,74.80
2019-05-14T03:46:15.565Z,73.00
2019-05-14T03:48:49.452Z,73.60
2019-05-14T03:51:15.972Z,71.70
2019-05-14T03:53:56.895Z,72.00
2019-05-14T03:56:11.078Z,72.60
2019-05-14T03:58:39.286Z,71.70
2019-05-14T04:01:09.702Z,71.10
2019-05-14T04:03:35.958Z,70.40
2019-05-14T04:06:02.882Z,70.90
2019-05-14T04:08:39.199Z,70.90
2019-05-14T04:11:13.050Z,69.70
2019-05-14T04:13:41.888Z,70.70
2019-05-14T04:16:20.262Z,70.20
2019-05-14T04:18:51.118Z,69.10
2019-05-14T04:21:20.514Z,69.00
2019-05-14T04:23:50.804Z,69.90
2019-05-14T04:26:20.770Z,70.50
2019-05-14T04:28:50.556Z,70.40
2019-05-14T04:31:19.359Z,72.10
2019-05-14T04:33:49.941Z,70.00
2019-05-14T04:36:20.598Z,68.20
2019-05-14T04:39:09.500Z,65.20
2019-05-14T04:41:39.122Z,63.60
2019-05-14T04:44:04.536Z,61.30
2019-05-14T04:46:39.531Z,61.70
2019-05-14T04:49:05.073Z,62.60
2019-05-14T04:51:35.135Z,62.50
2019-05-14T04:54:02.075Z,61.20
2019-05-14T04:56:30.196Z,60.50
2019-05-14T04:58:59.615Z,61.20
2019-05-14T05:01:32.351Z,60.00
2019-05-14T05:03:59.365Z,60.20
2019-05-14T05:06:28.849Z,57.20
2019-05-14T05:08:53.887Z,56.40
2019-05-14T05:11:21.293Z,55.70
2019-05-14T05:13:48.782Z,52.50
2019-05-14T05:16:21.086Z,52.70
2019-05-14T05:18:48.989Z,51.60
2019-05-14T05:21:15.487Z,52.20
2019-05-14T05:23:41.707Z,48.60
2019-05-14T05:26:09.223Z,47.90
2019-05-14T05:28:35.733Z,46.20
2019-05-14T05:31:03.960Z,42.10
2019-05-14T05:33:30.512Z,39.90
2019-05-14T05:35:59.265Z,40.40
2019-05-14T05:38:25.198Z,39.00
2019-05-14T05:40:51.480Z,36.90
2019-05-14T05:43:19.142Z,37.10
2019-05-14T05:45:59.363Z,36.00
2019-05-14T05:48:28.511Z,35.60
2019-05-14T05:51:02.294Z,35.40
2019-05-14T05:53:48.608Z,34.40
2019-05-14T05:56:18.438Z,35.10
2019-05-14T05:58:44.303Z,34.10
2019-05-14T06:01:11.605Z,33.60
2019-05-14T06:03:39.289Z,32.70
2019-05-14T06:06:13.276Z,31.20
2019-05-14T06:08:34.249Z,31.20
2019-05-14T06:11:00.462Z,33.00
2019-05-14T06:13:28.737Z,32.40
2019-05-14T06:16:05.320Z,33.40
2019-05-14T06:18:34.670Z,31.60
2019-05-14T06:21:00.898Z,33.20
2019-05-14T06:23:28.524Z,34.50
2019-05-14T06:25:54.994Z,31.80
2019-05-14T06:28:21.280Z,32.50
2019-05-14T06:30:49.924Z,31.90
2019-05-14T06:33:16.309Z,31.60
2019-05-14T06:35:42.552Z,31.10
2019-05-14T06:38:09.027Z,31.60
2019-05-14T06:40:35.509Z,31.40
2019-05-14T06:43:01.760Z,31.80
2019-05-14T06:45:29.231Z,32.40
2019-05-14T06:47:55.650Z,32.30
2019-05-14T06:50:22.032Z,31.10
2019-05-14T06:52:49.202Z,32.80
2019-05-14T06:55:17.903Z,33.30
2019-05-14T06:57:44.235Z,30.00
2019-05-14T07:00:11.238Z,30.90
2019-05-14T07:02:43.342Z,31.60
2019-05-14T07:05:08.338Z,31.90
2019-05-14T07:07:34.984Z,29.80
2019-05-14T07:10:04.268Z,29.90
2019-05-14T07:12:30.544Z,30.50
2019-05-14T07:14:58.565Z,30.70
2019-05-14T07:17:24.954Z,30.20
2019-05-14T07:19:51.216Z,29.30
2019-05-14T07:22:19.558Z,28.50
2019-05-14T07:24:45.743Z,29.90
2019-05-14T07:27:11.982Z,29.20
2019-05-14T07:29:38.937Z,29.50
2019-05-14T07:32:05.554Z,29.70
2019-05-14T07:34:31.835Z,31.20
2019-05-14T07:36:58.727Z,31.40
2019-05-14T07:39:25.138Z,30.80
2019-05-14T07:41:51.470Z,30.10
2019-05-14T07:44:18.263Z,31.40
2019-05-14T07:46:44.771Z,30.00
2019-05-14T07:49:11.974Z,31.70
2019-05-14T07:51:38.855Z,32.20
2019-05-14T07:54:05.257Z,31.10
2019-05-14T07:56:31.553Z,33.40
2019-05-14T07:59:08.969Z,33.30
2019-05-14T08:01:38.659Z,34.50
2019-05-14T08:04:05.456Z,30.90
2019-05-14T08:06:31.743Z,30.00
2019-05-14T08:08:59.214Z,31.20
2019-05-14T08:11:27.928Z,30.90
2019-05-14T08:13:53.713Z,31.00
2019-05-14T08:16:19.990Z,32.60
2019-05-14T08:18:48.481Z,33.80
2019-05-14T08:21:14.355Z,31.10
2019-05-14T08:23:40.596Z,30.00
2019-05-14T08:26:07.946Z,30.60
2019-05-14T08:28:34.369Z,33.30
2019-05-14T08:31:00.585Z,37.00
2019-05-14T08:33:28.987Z,32.70
2019-05-14T08:35:55.140Z,33.30
2019-05-14T08:38:21.386Z,29.60
2019-05-14T08:40:48.950Z,30.20
2019-05-14T08:43:15.494Z,31.20
2019-05-14T08:45:41.746Z,33.50
2019-05-14T08:48:20.028Z,34.80
2019-05-14T08:50:54.722Z,33.90
2019-05-14T08:53:39.606Z,34.20
2019-05-14T08:56:15.592Z,35.20
2019-05-14T08:58:58.924Z,35.00
2019-05-14T09:01:32.499Z,35.80
2019-05-14T09:04:21.666Z,38.40
2019-05-14T09:06:48.887Z,41.80
2019-05-14T09:09:15.275Z,45.10
2019-05-14T09:11:45.530Z,48.00
2019-05-14T09:14:11.245Z,52.40
2019-05-14T09:16:46.271Z,52.50
2019-05-14T09:19:06.041Z,54.60
2019-05-14T09:21:32.306Z,52.70
2019-05-14T09:23:58.865Z,52.90
2019-05-14T09:26:25.165Z,51.40
2019-05-14T09:28:51.371Z,52.50
2019-05-14T09:31:19.670Z,53.10
2019-05-14T09:33:49.418Z,48.50
2019-05-14T09:36:22.644Z,47.00
2019-05-14T09:38:44.663Z,48.80
2019-05-14T09:41:15.199Z,48.50
2019-05-14T09:43:39.440Z,46.50
2019-05-14T09:46:05.714Z,44.10
2019-05-14T09:48:32.026Z,45.70
2019-05-14T09:50:58.717Z,45.60
2019-05-14T09:53:24.996Z,41.20
2019-05-14T09:55:51.246Z,43.20
2019-05-14T09:58:19.938Z,40.00
2019-05-14T10:00:48.330Z,39.40
2019-05-14T10:03:14.319Z,37.00
2019-05-14T10:05:40.716Z,38.70
2019-05-14T10:08:08.973Z,38.20
2019-05-14T10:10:35.230Z,39.20
2019-05-14T10:13:01.952Z,39.30
2019-05-14T10:15:28.718Z,39.00
2019-05-14T10:17:55.118Z,38.20
2019-05-14T10:20:36.414Z,38.00
2019-05-14T10:22:49.594Z,38.90
2019-05-14T10:25:28.762Z,36.70
2019-05-14T10:27:55.064Z,35.50
2019-05-14T10:30:21.806Z,37.10
2019-05-14T10:32:49.213Z,34.50
2019-05-14T10:35:15.872Z,36.30
2019-05-14T10:37:42.199Z,36.20
2019-05-14T10:40:10.390Z,39.80
2019-05-14T10:42:39.994Z,37.60
2019-05-14T10:45:12.486Z,34.90
2019-05-14T10:47:35.511Z,37.90
2019-05-14T10:50:04.075Z,37.50
2019-05-14T10:52:30.340Z,35.50
2019-05-14T10:54:59.030Z,37.10
2019-05-14T10:57:24.679Z,36.80
2019-05-14T10:59:50.929Z,37.40
2019-05-14T11:02:18.594Z,37.10
2019-05-14T11:04:45.000Z,36.50
2019-05-14T11:07:11.264Z,37.20
2019-05-14T11:09:38.064Z,38.30
2019-05-14T11:12:04.656Z,39.60
2019-05-14T11:14:31.942Z,40.90
2019-05-14T11:16:59.188Z,40.10
2019-05-14T11:19:28.027Z,41.20
2019-05-14T11:21:53.845Z,40.60
2019-05-14T11:24:20.204Z,40.60
2019-05-14T11:26:48.854Z,40.10
2019-05-14T11:29:14.821Z,40.70
2019-05-14T11:31:41.039Z,41.70
2019-05-14T11:34:08.330Z,41.90
2019-05-14T11:36:34.638Z,44.00
2019-05-14T11:39:04.036Z,44.20
2019-05-14T11:41:29.092Z,44.80
2019-05-14T11:43:55.323Z,45.10
2019-05-14T11:46:33.807Z,43.90
2019-05-14T11:48:49.741Z,45.00
2019-05-14T11:51:15.978Z,46.00
2019-05-14T11:53:42.213Z,46.30
2019-05-14T11:56:08.883Z,45.50
2019-05-14T11:58:35.792Z,44.00
2019-05-14T12:01:02.220Z,43.90
2019-05-14T12:03:28.711Z,44.70
2019-05-14T12:05:55.078Z,44.60
2019-05-14T12:08:21.346Z,45.80
2019-05-14T12:10:47.599Z,41.70
2019-05-14T12:13:13.963Z,43.40
2019-05-14T12:15:40.209Z,40.90
2019-05-14T12:18:10.455Z,42.40
2019-05-14T12:20:39.555Z,43.00
2019-05-14T12:23:04.704Z,44.30
2019-05-14T12:25:31.526Z,43.40
2019-05-14T12:27:58.992Z,44.40
2019-05-14T12:30:25.651Z,45.10
2019-05-14T12:32:51.896Z,41.70
2019-05-14T12:35:19.838Z,40.90
2019-05-14T12:37:46.272Z,39.90
2019-05-14T12:40:12.942Z,41.50
2019-05-14T12:42:39.664Z,42.90
2019-05-14T12:45:09.666Z,40.50
2019-05-14T12:47:38.330Z,40.90
2019-05-14T12:50:09.139Z,41.60
2019-05-14T12:52:35.232Z,42.70
2019-05-14T12:55:03.518Z,44.50
2019-05-14T12:57:30.145Z,44.60
2019-05-14T13:00:05.581Z,44.30
2019-05-14T13:02:31.801Z,44.40
2019-05-14T13:05:00.159Z,43.00
2019-05-14T13:07:26.346Z,42.90
2019-05-14T13:09:52.576Z,39.70
2019-05-14T13:12:19.083Z,34.80
2019-05-14T13:14:45.323Z,37.20
2019-05-14T13:17:11.643Z,38.20
2019-05-14T13:19:38.096Z,37.70
2019-05-14T13:22:13.071Z,37.20
2019-05-14T13:24:32.570Z,36.80
2019-05-14T13:26:58.990Z,37.40
2019-05-14T13:29:25.235Z,38.20
2019-05-14T13:31:51.476Z,37.50
2019-05-14T13:34:19.500Z,32.60
2019-05-14T13:36:48.684Z,33.80
2019-05-14T13:39:14.059Z,32.80
2019-05-14T13:41:41.872Z,33.80
2019-05-14T13:44:18.685Z,35.40
2019-05-14T13:46:38.598Z,36.30
2019-05-14T13:49:04.936Z,34.50
2019-05-14T13:51:33.590Z,34.10
2019-05-14T13:53:59.302Z,35.30
2019-05-14T13:56:28.194Z,35.60
2019-05-14T13:58:54.120Z,37.60
2019-05-14T14:01:20.361Z,38.70
2019-05-14T14:04:01.221Z,40.50
2019-05-14T14:06:14.992Z,41.20
2019-05-14T14:08:42.444Z,41.00
2019-05-14T14:11:12.798Z,42.40
2019-05-14T14:13:39.208Z,41.50
2019-05-14T14:16:05.936Z,43.30
2019-05-14T14:18:32.419Z,44.60
2019-05-14T14:20:58.649Z,44.20
2019-05-14T14:23:30.121Z,44.40
2019-05-14T14:25:55.453Z,43.20
2019-05-14T14:28:21.197Z,41.90
2019-05-14T14:30:49.200Z,42.10
2019-05-14T14:33:18.317Z,43.80
2019-05-14T14:35:43.899Z,44.10
2019-05-14T14:38:10.874Z,42.90
2019-05-14T14:40:39.522Z,43.40
2019-05-14T14:43:05.779Z,43.10
2019-05-14T14:45:32.429Z,42.70
2019-05-14T14:48:01.311Z,44.40
2019-05-14T14:50:28.907Z,45.50
2019-05-14T14:52:55.444Z,46.40
2019-05-14T14:55:21.826Z,46.60
2019-05-14T14:57:53.888Z,48.30
2019-05-14T15:00:19.189Z,48.90
2019-05-14T15:02:44.934Z,49.00
2019-05-14T15:05:14.223Z,48.80
2019-05-14T15:07:40.992Z,49.50
2019-05-14T15:10:08.776Z,50.40
2019-05-14T15:12:39.055Z,50.50
2019-05-14T15:15:04.683Z,49.20
2019-05-14T15:17:30.981Z,49.30
2019-05-14T15:19:59.635Z,49.30
2019-05-14T15:22:30.448Z,48.40
2019-05-14T15:24:54.302Z,46.50
2019-05-14T15:27:21.043Z,47.70
2019-05-14T15:29:48.857Z,49.40
2019-05-14T15:32:15.417Z,51.80
2019-05-14T15:34:41.885Z,52.90
2019-05-14T15:37:08.934Z,53.30
2019-05-14T15:39:35.639Z,54.60
2019-05-14T15:42:05.094Z,54.10
2019-05-14T15:44:47.581Z,54.70
2019-05-14T15:46:58.815Z,54.70
2019-05-14T15:49:25.074Z,54.30
2019-05-14T15:51:52.117Z,53.30
2019-05-14T15:54:36.195Z,53.90
2019-05-14T15:56:49.180Z,53.70
2019-05-14T15:59:15.204Z,54.40
2019-05-14T16:01:41.637Z,52.10
2019-05-14T16:04:11.178Z,52.40
2019-05-14T16:06:38.458Z,53.30
2019-05-14T16:09:05.394Z,53.10
2019-05-14T16:11:31.660Z,53.80
2019-05-14T16:13:58.026Z,53.90
2019-05-14T16:16:24.365Z,56.60
2019-05-14T16:18:50.600Z,56.20
2019-05-14T16:21:18.292Z,56.30
2019-05-14T16:23:44.705Z,57.40
2019-05-14T16:26:10.951Z,57.60
2019-05-14T16:28:39.602Z,57.80
2019-05-14T16:31:05.390Z,58.70
2019-05-14T16:33:31.658Z,58.70
2019-05-14T16:35:58.152Z,59.80
2019-05-14T16:38:24.432Z,59.80
2019-05-14T16:40:50.760Z,62.10
2019-05-14T16:43:39.506Z,61.80
2019-05-14T16:46:05.306Z,61.40
2019-05-14T16:48:33.236Z,62.10
2019-05-14T16:50:59.644Z,61.30
2019-05-14T16:53:25.897Z,60.70
2019-05-14T16:55:52.139Z,58.40
2019-05-14T16:58:19.539Z,58.50
2019-05-14T17:00:46.161Z,57.20
2019-05-14T17:03:12.382Z,59.40
2019-05-14T17:05:38.678Z,57.90
2019-05-14T17:08:04.922Z,57.70
2019-05-14T17:10:31.166Z,56.90
2019-05-14T17:13:01.627Z,55.00
2019-05-14T17:15:25.589Z,55.30
2019-05-14T17:17:51.843Z,54.00
2019-05-14T17:20:19.407Z,55.60
2019-05-14T17:22:48.757Z,54.90
2019-05-14T17:25:26.341Z,55.90
2019-05-14T17:27:43.107Z,56.40
2019-05-14T17:30:09.937Z,55.90
2019-05-14T17:32:38.979Z,56.80
2019-05-14T17:35:05.743Z,56.10
2019-05-14T17:37:32.022Z,56.60
2019-05-14T17:39:58.308Z,55.30
2019-05-14T17:42:24.549Z,55.30
2019-05-14T17:44:52.659Z,55.60
2019-05-14T17:47:20.617Z,55.40
2019-05-14T17:49:48.518Z,55.00
2019-05-14T17:52:15.054Z,55.80
2019-05-14T17:54:42.197Z,57.20
2019-05-14T17:57:08.606Z,57.60
2019-05-14T17:59:34.832Z,58.20
2019-05-14T18:02:01.115Z,58.60
2019-05-14T18:04:28.379Z,58.80
2019-05-14T18:06:54.837Z,59.30
2019-05-14T18:09:21.045Z,60.10
2019-05-14T18:11:49.078Z,60.10
2019-05-14T18:14:15.849Z,58.40
2019-05-14T18:16:42.599Z,58.40
2019-05-14T18:19:08.911Z,59.30
2019-05-14T18:21:35.220Z,59.80
2019-05-14T18:24:01.974Z,58.70
2019-05-14T18:26:29.228Z,59.20
2019-05-14T18:28:57.972Z,59.10
2019-05-14T18:31:24.610Z,59.30
2019-05-14T18:33:50.862Z,58.70
2019-05-14T18:36:19.647Z,57.00
2019-05-14T18:38:49.111Z,57.80
2019-05-14T18:41:18.870Z,58.10
2019-05-14T18:43:46.423Z,58.50
2019-05-14T18:46:14.613Z,58.60
2019-05-14T18:48:41.860Z,59.20
2019-05-14T18:51:09.291Z,59.50
2019-05-14T18:53:38.464Z,60.00
2019-05-14T18:56:19.562Z,58.70
2019-05-14T18:58:38.181Z,59.00
2019-05-14T19:01:07.637Z,58.70
2019-05-14T19:03:39.588Z,58.80
2019-05-14T19:06:07.352Z,57.80
2019-05-14T19:08:35.240Z,58.70
2019-05-14T19:11:02.973Z,59.50
2019-05-14T19:13:30.927Z,60.70
2019-05-14T19:15:59.281Z,59.80
2019-05-14T19:18:28.670Z,60.30
2019-05-14T19:20:59.184Z,61.10
2019-05-14T19:23:29.252Z,60.40
2019-05-14T19:25:59.134Z,60.30
2019-05-14T19:28:28.249Z,60.60
2019-05-14T19:30:56.419Z,60.70
2019-05-14T19:33:24.275Z,61.70
2019-05-14T19:35:52.520Z,63.00
2019-05-14T19:38:20.499Z,61.10
2019-05-14T19:40:48.677Z,61.20
2019-05-14T19:43:18.932Z,61.50
2019-05-14T19:45:48.495Z,62.20
2019-05-14T19:48:16.083Z,62.60
2019-05-14T19:50:44.043Z,62.80
2019-05-14T19:53:11.950Z,62.80
2019-05-14T19:55:40.285Z,62.90
2019-05-14T19:58:08.316Z,64.00
2019-05-14T20:00:38.353Z,63.90
2019-05-14T20:03:08.622Z,64.00
2019-05-14T20:05:35.965Z,64.40
2019-05-14T20:08:03.645Z,65.10
2019-05-14T20:10:45.945Z,65.30
2019-05-14T20:13:13.805Z,65.40
2019-05-14T20:15:41.642Z,65.80
2019-05-14T20:18:09.039Z,66.50
2019-05-14T20:20:38.915Z,67.20
2019-05-14T20:23:06.257Z,67.10
2019-05-14T20:25:33.440Z,68.00
2019-05-14T20:28:02.532Z,68.50
2019-05-14T20:30:29.780Z,68.70
2019-05-14T20:32:59.161Z,69.40
2019-05-14T20:35:31.632Z,70.00
2019-05-14T20:37:53.853Z,69.20
2019-05-14T20:40:20.411Z,69.70
2019-05-14T20:42:49.123Z,70.20
2019-05-14T20:45:18.978Z,70.20
2019-05-14T20:47:44.648Z,70.80
2019-05-14T20:50:11.594Z,70.60
2019-05-14T20:52:37.852Z,70.90
2019-05-14T20:55:05.988Z,71.40
2019-05-14T20:58:12.499Z,71.80
2019-05-14T21:00:41.432Z,71.50
2019-05-14T21:03:08.977Z,71.60
2019-05-14T21:05:35.315Z,72.00
2019-05-14T21:08:01.565Z,71.80
2019-05-14T21:10:29.165Z,72.40
2019-05-14T21:12:57.897Z,72.70
2019-05-14T21:15:23.849Z,72.60
2019-05-14T21:17:50.821Z,72.60
2019-05-14T21:20:18.448Z,72.90
2019-05-14T21:22:44.845Z,72.70
2019-05-14T21:25:12.740Z,72.90
2019-05-14T21:27:48.056Z,72.90
2019-05-14T21:30:09.294Z,73.50
2019-05-14T21:32:35.726Z,73.70
2019-05-14T21:35:03.963Z,73.30
2019-05-14T21:37:30.332Z,73.70
2019-05-14T21:39:58.295Z,74.20
2019-05-14T21:42:24.596Z,73.30
2019-05-14T21:44:51.556Z,73.90
2019-05-14T21:47:18.029Z,73.80
2019-05-14T21:49:44.269Z,73.30
2019-05-14T21:52:10.519Z,73.80
2019-05-14T21:54:39.301Z,73.70
2019-05-14T21:57:04.959Z,73.30
2019-05-14T21:59:31.210Z,73.50
2019-05-14T22:01:58.960Z,73.60
2019-05-14T22:04:25.370Z,73.60
2019-05-14T22:06:51.658Z,73.90
2019-05-14T22:09:17.877Z,74.00
2019-05-14T22:11:44.158Z,73.90
2019-05-14T22:14:11.197Z,73.90
2019-05-14T22:16:39.567Z,73.40
2019-05-14T22:19:08.317Z,73.90
2019-05-14T22:21:34.231Z,73.30
2019-05-14T22:24:00.661Z,73.00
2019-05-14T22:26:28.143Z,73.00
2019-05-14T22:28:54.569Z,73.10
2019-05-14T22:31:20.810Z,73.90
2019-05-14T22:33:47.035Z,73.90
2019-05-14T22:36:13.283Z,73.70
2019-05-14T22:38:39.810Z,73.50
2019-05-14T22:41:08.262Z,73.10
2019-05-14T22:43:34.729Z,72.80
2019-05-14T22:46:01.016Z,72.80
2019-05-14T22:48:27.233Z,72.90
2019-05-14T22:50:53.454Z,73.50
2019-05-14T22:53:19.697Z,72.90
2019-05-14T22:55:45.910Z,73.40
2019-05-14T22:58:24.738Z,73.30
2019-05-14T23:00:47.088Z,73.80
2019-05-14T23:03:08.505Z,73.80
2019-05-14T23:05:34.745Z,73.90
2019-05-14T23:08:00.977Z,73.80
2019-05-14T23:10:27.218Z,73.80
2019-05-14T23:12:53.430Z,73.80
2019-05-14T23:15:19.699Z,74.10
2019-05-14T23:17:47.958Z,74.00
2019-05-14T23:20:14.420Z,74.20
2019-05-14T23:22:40.646Z,74.60
2019-05-14T23:25:08.933Z,75.40
2019-05-14T23:27:35.449Z,75.50
2019-05-14T23:30:02.876Z,75.30
2019-05-14T23:32:29.128Z,74.80
2019-05-14T23:34:55.643Z,75.10
2019-05-14T23:37:21.934Z,74.80
2019-05-14T23:39:49.090Z,75.30
2019-05-14T23:42:15.592Z,75.10
2019-05-14T23:44:41.816Z,75.00
2019-05-14T23:47:08.366Z,74.70
2019-05-14T23:49:35.072Z,75.10
2019-05-14T23:52:01.528Z,75.00
2019-05-14T23:54:29.114Z,74.90
2019-05-14T23:56:58.270Z,75.30
2019-05-14T23:59:23.793Z,75.60
